Time;durP1;ratioP1;P1;durP2;ratioP2;P2;SDS_P1;SDS_P2;PMS_P1;PMS_P2;Temp;Humidity;BMP_temperature;BMP_pressure;BME280_temperature;BME280_humidity;BME280_pressure;Samples;Min_cycle;Max_cycle;Signal;HPM_P1;HPM_P2
2022/09/15 00:04:30;;;;;;;5.00;2.47;;;14.10;99.90;;;;;;10594311;28;20228;-85
2022/09/15 00:09:51;;;;;;;6.18;2.22;;;14.10;99.90;;;;;;10604513;28;20197;-88
2022/09/15 00:15:14;;;;;;;6.07;2.22;;;14.00;99.90;;;;;;10552960;28;20243;-88
2022/09/15 00:20:40;;;;;;;9.57;2.95;;;14.00;1.00;;;;;;10564392;28;20521;-88
2022/09/15 00:26:09;;;;;;;5.67;2.63;;;13.80;1.00;;;;;;10559047;28;20231;-87
2022/09/15 00:31:31;;;;;;;6.78;3.20;;;13.80;1.00;;;;;;10580540;28;20224;-89
2022/09/15 00:36:52;;;;;;;8.97;2.40;;;13.70;1.00;;;;;;10574420;28;20248;-87
2022/09/15 00:42:18;;;;;;;6.73;3.23;;;13.80;1.00;;;;;;10591164;28;20207;-84
2022/09/15 00:47:42;;;;;;;5.37;2.63;;;13.70;1.00;;;;;;10574080;28;20197;-86
2022/09/15 00:53:07;;;;;;;8.13;2.83;;;13.60;1.00;;;;;;10574232;28;20231;-89
2022/09/15 00:58:45;;;;;;;8.75;3.42;;;13.60;1.00;;;;;;10590500;28;20213;-88
2022/09/15 01:04:08;;;;;;;9.17;2.33;;;13.50;1.00;;;;;;10591245;28;20195;-89
2022/09/15 01:09:40;;;;;;;7.77;2.33;;;13.50;1.00;;;;;;10573208;28;20199;-88
2022/09/15 01:15:01;;;;;;;4.37;2.33;;;13.50;1.00;;;;;;10566300;28;20201;-89
2022/09/15 01:20:35;;;;;;;4.60;2.23;;;13.40;1.00;;;;;;10549847;28;20445;-90
2022/09/15 01:26:21;;;;;;;5.03;2.10;;;13.40;1.00;;;;;;10569645;28;20195;-89
2022/09/15 01:37:43;;;;;;;4.77;2.40;;;13.40;1.00;;;;;;10571976;28;20299;-89
2022/09/15 01:43:08;;;;;;;6.33;2.90;;;13.40;1.00;;;;;;10590195;28;20200;-89
2022/09/15 01:48:32;;;;;;;7.73;2.30;;;13.30;1.00;;;;;;10588229;28;20196;-86
2022/09/15 01:53:55;;;;;;;4.23;2.20;;;13.20;1.00;;;;;;10581096;28;20446;-88
2022/09/15 01:59:16;;;;;;;8.67;2.30;;;13.20;1.00;;;;;;10574982;28;20814;-90
2022/09/15 02:05:07;;;;;;;4.60;1.90;;;13.20;1.00;;;;;;10572305;28;20220;-88
2022/09/15 02:10:54;;;;;;;4.90;2.33;;;13.10;1.00;;;;;;10588926;28;20275;-89
2022/09/15 02:16:26;;;;;;;9.40;2.90;;;13.00;1.00;;;;;;10572619;28;20208;-87
2022/09/15 02:22:11;;;;;;;10.87;2.97;;;13.00;1.00;;;;;;10575114;28;20220;-86
2022/09/15 02:27:36;;;;;;;6.17;2.60;;;12.90;1.00;;;;;;10545704;28;20195;-87
2022/09/15 02:33:05;;;;;;;10.80;3.10;;;12.80;1.00;;;;;;10583752;28;20233;-86
2022/09/15 02:38:29;;;;;;;6.60;2.90;;;12.80;1.00;;;;;;10576750;28;20256;-88
2022/09/15 02:43:51;;;;;;;5.27;2.83;;;12.80;1.00;;;;;;10571505;28;20196;-89
2022/09/15 02:49:13;;;;;;;11.17;3.40;;;12.80;1.00;;;;;;10578750;28;20195;-90
2022/09/15 02:54:35;;;;;;;7.70;3.90;;;12.80;1.00;;;;;;10564959;28;20196;-85
2022/09/15 03:00:11;;;;;;;7.33;2.13;;;12.70;1.00;;;;;;10595659;28;20436;-85
2022/09/15 03:05:32;;;;;;;6.87;2.20;;;12.70;1.00;;;;;;10578505;28;20188;-88
2022/09/15 03:10:56;;;;;;;10.23;3.33;;;12.60;1.00;;;;;;10578096;28;20430;-84
2022/09/15 03:16:17;;;;;;;5.20;2.53;;;12.60;1.00;;;;;;10552821;28;20200;-87
2022/09/15 03:21:40;;;;;;;4.03;2.23;;;12.50;1.00;;;;;;10587424;28;20459;-90
2022/09/15 03:27:01;;;;;;;7.97;2.37;;;12.50;1.00;;;;;;10550365;28;20203;-86
2022/09/15 03:32:22;;;;;;;9.33;4.30;;;12.60;1.00;;;;;;10552133;28;20341;-86
2022/09/15 03:37:44;;;;;;;8.90;4.03;;;12.60;1.00;;;;;;10552162;28;20303;-88
2022/09/15 03:43:05;;;;;;;6.77;2.87;;;12.70;1.00;;;;;;10566191;28;20194;-85
2022/09/15 03:48:29;;;;;;;7.57;2.73;;;12.70;1.00;;;;;;10565597;28;20192;-88
2022/09/15 03:53:50;;;;;;;7.83;3.20;;;12.70;1.00;;;;;;10565824;28;20197;-87
2022/09/15 03:59:11;;;;;;;4.63;2.70;;;12.70;1.00;;;;;;10550480;28;20260;-86
2022/09/15 04:04:33;;;;;;;9.33;3.13;;;12.60;1.00;;;;;;10550739;28;20200;-87
2022/09/15 04:09:55;;;;;;;6.40;2.60;;;12.60;1.00;;;;;;10550581;28;20238;-88
2022/09/15 04:15:16;;;;;;;9.80;3.43;;;12.60;1.00;;;;;;10550348;28;20253;-87
2022/09/15 04:20:38;;;;;;;6.20;3.17;;;12.60;1.00;;;;;;10559844;28;20313;-88
2022/09/15 04:26:03;;;;;;;8.97;3.47;;;12.50;13.60;;;;;;10550757;28;20189;-87
2022/09/15 04:31:24;;;;;;;7.93;3.03;;;12.50;27.90;;;;;;10567404;28;20386;-90
2022/09/15 04:36:47;;;;;;;7.77;2.70;;;12.40;12.20;;;;;;10599801;28;20226;-85
2022/09/15 04:42:08;;;;;;;6.60;2.67;;;12.40;43.20;;;;;;10570989;28;20272;-89
2022/09/15 04:47:29;;;;;;;8.70;2.83;;;12.50;26.10;;;;;;10538229;28;20368;-91
2022/09/15 04:52:51;;;;;;;3.77;2.27;;;12.50;29.80;;;;;;10588877;28;20197;-84
2022/09/15 04:58:13;;;;;;;5.80;2.60;;;12.60;37.40;;;;;;10575516;28;20224;-87
2022/09/15 05:03:36;;;;;;;5.23;2.10;;;12.70;28.30;;;;;;10575817;28;20191;-88
2022/09/15 05:09:11;;;;;;;7.67;2.90;;;12.70;24.90;;;;;;10579477;28;20205;-89
2022/09/15 05:14:41;;;;;;;5.87;2.73;;;12.80;27.90;;;;;;10574663;28;20393;-91
2022/09/15 05:20:04;;;;;;;5.97;2.17;;;12.90;10.80;;;;;;10590249;28;20232;-92
2022/09/15 05:25:25;;;;;;;8.60;1.77;;;13.00;1.00;;;;;;10556125;28;20481;-91
2022/09/15 05:30:47;;;;;;;4.22;1.90;;;13.20;1.00;;;;;;10545388;28;20255;-90
2022/09/15 05:36:08;;;;;;;6.73;2.17;;;13.30;1.00;;;;;;10573115;28;20203;-90
2022/09/15 05:41:29;;;;;;;5.77;2.40;;;13.50;1.00;;;;;;10589266;28;20216;-88
2022/09/15 05:46:51;;;;;;;9.23;2.33;;;13.60;1.00;;;;;;10574936;28;20187;-84
2022/09/15 05:52:12;;;;;;;7.13;2.30;;;13.70;1.00;;;;;;10575125;28;20214;-85
2022/09/15 05:57:33;;;;;;;3.42;1.60;;;13.70;1.00;;;;;;10585311;28;20211;-84
2022/09/15 06:02:54;;;;;;;4.10;2.13;;;13.80;1.00;;;;;;10557646;28;20201;-86
2022/09/15 06:08:16;;;;;;;4.50;1.67;;;13.90;1.00;;;;;;10572091;28;20200;-89
2022/09/15 06:13:38;;;;;;;6.20;1.87;;;14.00;1.00;;;;;;10572128;28;20428;-91
2022/09/15 06:19:00;;;;;;;5.28;1.95;;;14.10;1.00;;;;;;10571188;28;20230;-90
2022/09/15 06:24:23;;;;;;;10.38;1.83;;;14.10;1.00;;;;;;10563772;28;20245;-87
2022/09/15 06:29:44;;;;;;;5.65;1.45;;;14.30;1.00;;;;;;10574377;28;20248;-85
2022/09/15 06:35:06;;;;;;;4.43;2.03;;;14.50;1.00;;;;;;10593904;28;20213;-87
2022/09/15 06:40:27;;;;;;;5.95;1.90;;;14.70;1.00;;;;;;10596313;28;20221;-88
2022/09/15 06:45:49;;;;;;;8.77;2.00;;;14.80;1.00;;;;;;10564878;28;20193;-90
2022/09/15 06:51:12;;;;;;;2.83;1.60;;;15.00;99.90;;;;;;10579003;28;20195;-89
2022/09/15 06:56:33;;;;;;;3.85;1.55;;;15.20;99.90;;;;;;10579020;28;20260;-89
2022/09/15 07:01:57;;;;;;;3.53;1.48;;;15.50;99.90;;;;;;10579264;28;20547;-87
2022/09/15 07:07:21;;;;;;;10.60;1.65;;;15.90;99.90;;;;;;10564817;28;20200;-88
2022/09/15 07:12:42;;;;;;;5.70;1.98;;;16.20;1.00;;;;;;10524241;28;20200;-91
2022/09/15 07:18:05;;;;;;;4.97;1.80;;;16.30;1.00;;;;;;10578345;28;20218;-89
2022/09/15 07:23:28;;;;;;;3.83;1.33;;;16.10;1.00;;;;;;10560500;28;20261;-82
2022/09/15 07:28:53;;;;;;;13.95;8.27;;;16.20;1.00;;;;;;10551071;28;20235;-89
2022/09/15 07:34:14;;;;;;;3.78;1.73;;;16.30;1.00;;;;;;10560711;28;20256;-83
2022/09/15 07:39:35;;;;;;;3.60;1.40;;;16.10;1.00;;;;;;10573876;28;20450;-82
2022/09/15 07:44:57;;;;;;;6.45;2.22;;;15.70;1.00;;;;;;10561890;28;20192;-86
2022/09/15 07:50:18;;;;;;;4.22;1.25;;;15.60;1.00;;;;;;10556919;28;20197;-83
2022/09/15 07:55:40;;;;;;;2.97;1.47;;;15.40;1.00;;;;;;10570753;28;20210;-82
2022/09/15 08:01:06;;;;;;;5.72;1.73;;;15.50;1.00;;;;;;10570413;28;20808;-81
2022/09/15 08:06:29;;;;;;;2.92;1.20;;;15.60;1.00;;;;;;10571214;28;20455;-80
2022/09/15 08:11:51;;;;;;;5.97;1.30;;;15.90;1.00;;;;;;10570774;28;20189;-83
2022/09/15 08:17:15;;;;;;;3.80;1.08;;;16.20;1.00;;;;;;10560188;28;20195;-84
2022/09/15 08:22:50;;;;;;;3.40;1.33;;;16.40;1.00;;;;;;10552203;28;20212;-80
2022/09/15 08:28:13;;;;;;;4.68;1.38;;;;;;;;;;10575842;28;20501;-83
2022/09/15 08:33:35;;;;;;;3.38;1.42;;;17.10;99.90;;;;;;10547817;28;20232;-83
2022/09/15 08:38:58;;;;;;;17.42;2.15;;;;;;;;;;10552463;28;20221;-84
2022/09/15 08:44:43;;;;;;;4.28;1.65;;;17.40;1.00;;;;;;10587634;28;20188;-86
2022/09/15 08:50:27;;;;;;;3.17;1.15;;;17.70;1.00;;;;;;10601104;28;20192;-90
2022/09/15 08:55:56;;;;;;;3.05;1.20;;;17.80;99.90;;;;;;10545387;28;20415;-82
2022/09/15 09:01:41;;;;;;;4.90;1.65;;;18.10;99.90;;;;;;10594241;28;20216;-84
2022/09/15 09:07:13;;;;;;;2.33;1.10;;;18.40;1.00;;;;;;10574282;28;20242;-85
2022/09/15 09:13:13;;;;;;;2.58;1.00;;;18.80;68.30;;;;;;10592966;28;20488;-83
2022/09/15 09:18:34;;;;;;;1.50;1.13;;;;;;;;;;10533023;28;20263;-84
2022/09/15 09:24:14;;;;;;;6.72;1.10;;;21.10;68.80;;;;;;10559342;28;20202;-84
2022/09/15 09:29:41;;;;;;;1.58;0.90;;;21.60;90.60;;;;;;10560775;28;20212;-88
2022/09/15 09:35:27;;;;;;;11.32;8.43;;;20.90;89.90;;;;;;10547559;28;20435;-83
2022/09/15 09:40:49;;;;;;;4.25;1.27;;;20.40;59.00;;;;;;10567538;28;20390;-83
2022/09/15 09:46:16;;;;;;;3.25;1.13;;;19.90;60.70;;;;;;10566550;28;20288;-83
2022/09/15 09:51:51;;;;;;;5.70;1.05;;;19.40;63.00;;;;;;10580475;28;20426;-88
2022/09/15 09:57:13;;;;;;;3.85;1.50;;;19.80;60.40;;;;;;10566665;28;20366;-86
2022/09/15 10:02:45;;;;;;;4.38;0.90;;;19.40;59.00;;;;;;10551079;28;20227;-86
2022/09/15 10:08:14;;;;;;;3.30;0.90;;;19.20;59.90;;;;;;10527270;28;20270;-86
2022/09/15 10:13:51;;;;;;;2.42;0.88;;;20.70;51.40;;;;;;10580838;28;20243;-85
2022/09/15 10:19:13;;;;;;;2.85;0.88;;;22.60;44.20;;;;;;10531189;28;20256;-85
2022/09/15 10:24:38;;;;;;;2.50;0.98;;;23.80;34.40;;;;;;10567179;28;20254;-82
2022/09/15 10:30:18;;;;;;;1.13;0.63;;;23.50;30.10;;;;;;10562709;28;20238;-82
2022/09/15 10:35:41;;;;;;;6.10;1.10;;;21.10;32.10;;;;;;10570936;28;20205;-82
2022/09/15 10:41:30;;;;;;;3.83;1.48;;;20.90;32.60;;;;;;10552434;28;20225;-85
2022/09/15 10:47:10;;;;;;;2.88;1.02;;;19.80;37.50;;;;;;10568070;28;20271;-81
2022/09/15 10:52:40;;;;;;;1.75;0.82;;;18.80;40.80;;;;;;10538248;28;20196;-85
2022/09/15 10:58:20;;;;;;;3.63;0.80;;;18.20;48.80;;;;;;10580225;28;20203;-85
2022/09/15 11:04:02;;;;;;;2.65;1.33;;;;;;;;;;10531532;28;20440;-85
2022/09/15 11:09:27;;;;;;;1.48;0.60;;;16.90;95.00;;;;;;10584313;28;20208;-82
2022/09/15 11:15:02;;;;;;;2.38;1.08;;;16.60;1.00;;;;;;10571889;28;20189;-86
2022/09/15 11:20:29;;;;;;;2.35;0.80;;;16.00;1.00;;;;;;10554175;28;20751;-84
2022/09/15 11:26:04;;;;;;;1.65;0.93;;;15.90;39.80;;;;;;10568486;28;20251;-87
2022/09/15 11:31:41;;;;;;;5.80;1.20;;;15.90;16.70;;;;;;10551061;28;20245;-90
2022/09/15 11:37:11;;;;;;;1.27;0.63;;;16.10;1.00;;;;;;10589122;28;20189;-87
2022/09/15 11:42:45;;;;;;;2.38;0.55;;;16.30;1.00;;;;;;10572492;28;20532;-84
2022/09/15 11:48:19;;;;;;;7.10;1.50;;;16.40;99.90;;;;;;10570902;28;20210;-83
2022/09/15 11:53:52;;;;;;;5.63;1.08;;;16.50;99.90;;;;;;10570496;28;20203;-80
2022/09/15 11:59:37;;;;;;;2.55;0.68;;;16.80;1.00;;;;;;10569527;28;20221;-81
2022/09/15 12:05:08;;;;;;;0.70;0.50;;;17.20;1.00;;;;;;10527899;28;20359;-82
2022/09/15 12:10:37;;;;;;;2.90;0.68;;;18.40;1.00;;;;;;10537135;28;20193;-84
2022/09/15 12:16:01;;;;;;;2.22;0.98;;;19.20;99.90;;;;;;10570034;28;20218;-84
2022/09/15 12:21:47;;;;;;;1.55;0.85;;;19.40;1.00;;;;;;10564560;28;20307;-83
2022/09/15 12:27:19;;;;;;;4.78;0.82;;;18.60;99.90;;;;;;10569800;28;20303;-90
2022/09/15 12:32:41;;;;;;;3.03;1.35;;;18.00;1.00;;;;;;10571667;28;20229;-86
2022/09/15 12:38:02;;;;;;;3.88;1.10;;;18.00;1.00;;;;;;10572121;28;20187;-87
2022/09/15 12:43:24;;;;;;;0.98;0.82;;;18.10;99.90;;;;;;10566379;28;20272;-83
2022/09/15 12:48:45;;;;;;;10.13;1.63;;;18.10;99.90;;;;;;10583870;28;20191;-89
2022/09/15 12:54:17;;;;;;;1.83;0.70;;;18.20;1.00;;;;;;10576157;28;20237;-85
2022/09/15 12:59:39;;;;;;;2.20;0.95;;;19.60;58.30;;;;;;10588365;28;20424;-88
2022/09/15 13:05:01;;;;;;;1.75;0.60;;;20.80;1.00;;;;;;10529015;28;20582;-82
2022/09/15 13:10:39;;;;;;;2.60;0.57;;;21.00;99.90;;;;;;10566220;28;20239;-87
2022/09/15 13:16:05;;;;;;;1.30;0.70;;;20.50;99.90;;;;;;10568892;28;20193;-85
2022/09/15 13:21:28;;;;;;;1.92;0.88;;;20.30;99.90;;;;;;10584068;28;20232;-90
2022/09/15 13:26:54;;;;;;;4.65;0.70;;;20.10;1.00;;;;;;10554639;28;20384;-86
2022/09/15 13:32:27;;;;;;;4.47;1.20;;;19.90;1.00;;;;;;10561317;28;20301;-83
2022/09/15 13:37:55;;;;;;;9.10;1.10;;;19.30;99.90;;;;;;10549128;28;20546;-84
2022/09/15 13:44:03;;;;;;;1.88;1.00;;;18.70;99.90;;;;;;10552801;28;20275;-82
2022/09/15 13:49:34;;;;;;;2.22;0.70;;;18.50;1.00;;;;;;10569222;28;20503;-82
2022/09/15 13:55:26;;;;;;;5.57;0.90;;;18.70;1.00;;;;;;10515271;28;20210;-82
2022/09/15 14:00:53;;;;;;;9.45;1.83;;;19.10;1.00;;;;;;10521013;28;20250;-82
2022/09/15 14:06:22;;;;;;;3.00;1.02;;;19.00;99.90;;;;;;10585521;28;20196;-83
2022/09/15 14:11:47;;;;;;;2.78;1.15;;;18.70;99.90;;;;;;10566997;28;20200;-81
2022/09/15 14:17:24;;;;;;;3.50;1.10;;;18.40;1.00;;;;;;10564263;28;21283;-89
2022/09/15 14:22:49;;;;;;;2.70;1.10;;;18.20;99.90;;;;;;10575356;28;20228;-81
2022/09/15 14:28:26;;;;;;;3.15;1.00;;;18.10;99.90;;;;;;10557295;28;20218;-82
2022/09/15 14:33:50;;;;;;;10.88;1.38;;;18.00;1.00;;;;;;10546280;28;20240;-84
2022/09/15 14:39:20;;;;;;;8.98;1.20;;;17.90;1.00;;;;;;10573348;28;20576;-82
2022/09/15 14:44:41;;;;;;;3.83;1.00;;;17.50;1.00;;;;;;10574836;28;20278;-84
2022/09/15 14:50:23;;;;;;;4.03;1.30;;;17.40;1.00;;;;;;10578916;28;20494;-87
2022/09/15 14:55:55;;;;;;;4.55;1.73;;;17.30;15.10;;;;;;10551224;28;20190;-87
2022/09/15 15:01:31;;;;;;;2.17;1.00;;;17.30;14.50;;;;;;10559984;28;20448;-90
2022/09/15 15:07:00;;;;;;;10.27;1.52;;;17.20;99.90;;;;;;10576849;28;20195;-87
2022/09/15 15:12:32;;;;;;;3.83;1.45;;;17.00;91.00;;;;;;10577130;28;20264;-85
2022/09/15 15:17:54;;;;;;;1.83;0.93;;;16.80;99.90;;;;;;10591622;28;20204;-86
2022/09/15 15:23:22;;;;;;;3.05;1.40;;;16.60;1.00;;;;;;10559244;28;20224;-85
2022/09/15 15:28:43;;;;;;;0.70;0.70;;;16.50;1.00;;;;;;10567595;28;20202;-85
2022/09/15 15:34:20;;;;;;;5.88;1.50;;;16.40;1.00;;;;;;10563356;28;20219;-86
2022/09/15 15:39:45;;;;;;;4.25;1.30;;;16.30;1.00;;;;;;10576860;28;20252;-84
2022/09/15 15:45:29;;;;;;;2.25;1.17;;;16.20;1.00;;;;;;10576959;28;20197;-84
2022/09/15 15:50:50;;;;;;;3.50;1.45;;;16.10;1.00;;;;;;10562239;28;20201;-85
2022/09/15 15:56:12;;;;;;;3.95;1.20;;;16.10;1.00;;;;;;10578432;28;20379;-84
2022/09/15 16:01:33;;;;;;;2.22;1.20;;;16.00;1.00;;;;;;10589938;28;20218;-84
2022/09/15 16:06:54;;;;;;;2.53;1.02;;;15.90;1.00;;;;;;10589978;28;20190;-84
2022/09/15 16:12:16;;;;;;;9.40;1.63;;;15.80;1.00;;;;;;10575513;28;20194;-84
2022/09/15 16:17:37;;;;;;;7.10;1.67;;;15.70;1.00;;;;;;10555515;28;20190;-85
2022/09/15 16:23:00;;;;;;;5.05;1.50;;;15.50;1.00;;;;;;10572039;28;20425;-84
2022/09/15 16:28:22;;;;;;;3.80;1.23;;;15.40;1.00;;;;;;10564346;28;20223;-85
2022/09/15 16:33:43;;;;;;;3.10;1.10;;;15.30;1.00;;;;;;10564367;28;20257;-84
2022/09/15 16:39:05;;;;;;;4.22;1.52;;;15.20;1.00;;;;;;10533055;28;20217;-84
2022/09/15 16:44:27;;;;;;;6.18;1.10;;;15.10;99.90;;;;;;10533238;28;20201;-84
2022/09/15 16:49:50;;;;;;;4.43;1.17;;;15.10;99.90;;;;;;10534831;28;20211;-84
2022/09/15 16:55:30;;;;;;;2.65;1.20;;;15.00;99.90;;;;;;10587943;28;20197;-84
2022/09/15 17:00:52;;;;;;;2.67;1.20;;;14.90;99.90;;;;;;10577446;28;20225;-84
2022/09/15 17:06:16;;;;;;;5.40;1.23;;;14.80;1.00;;;;;;10574126;28;20271;-85
2022/09/15 17:11:37;;;;;;;3.73;1.10;;;14.60;1.00;;;;;;10590459;28;20272;-86
2022/09/15 17:16:59;;;;;;;2.77;1.57;;;14.50;1.00;;;;;;10605485;28;20190;-84
2022/09/15 17:22:20;;;;;;;2.70;1.47;;;14.40;1.00;;;;;;10559000;28;20231;-85
2022/09/15 17:27:41;;;;;;;3.97;1.80;;;14.40;99.90;;;;;;10564962;28;20196;-84
2022/09/15 17:33:11;;;;;;;4.53;1.63;;;14.30;1.00;;;;;;10589182;28;20261;-84
2022/09/15 17:38:32;;;;;;;9.53;2.83;;;14.20;1.00;;;;;;10576676;28;20204;-83
2022/09/15 17:43:55;;;;;;;8.00;2.80;;;14.10;99.90;;;;;;10590247;28;20199;-85
2022/09/15 17:49:16;;;;;;;7.23;3.33;;;14.00;99.90;;;;;;10572035;28;20199;-84
2022/09/15 17:54:37;;;;;;;7.73;3.53;;;13.90;1.00;;;;;;10589218;28;20431;-84
2022/09/15 17:59:59;;;;;;;10.20;2.87;;;13.90;93.50;;;;;;10572646;28;20387;-85
2022/09/15 18:05:27;;;;;;;6.23;2.83;;;13.70;1.00;;;;;;10586882;28;20197;-84
2022/09/15 18:10:48;;;;;;;6.17;2.73;;;13.70;1.00;;;;;;10571462;28;20199;-84
2022/09/15 18:16:12;;;;;;;6.80;3.20;;;13.60;1.00;;;;;;10573137;28;20200;-84
2022/09/15 18:21:34;;;;;;;15.70;6.13;;;13.50;99.90;;;;;;10593526;28;20244;-83
2022/09/15 18:26:55;;;;;;;30.87;9.67;;;13.50;99.90;;;;;;10575907;28;20188;-84
2022/09/15 18:32:16;;;;;;;15.33;5.40;;;13.50;99.90;;;;;;10579486;28;20240;-84
2022/09/15 18:37:38;;;;;;;15.47;6.20;;;13.40;99.90;;;;;;10565416;28;20195;-84
2022/09/15 18:42:59;;;;;;;12.33;4.47;;;13.40;99.90;;;;;;10581651;28;20216;-84
2022/09/15 18:48:20;;;;;;;11.43;3.90;;;13.30;1.00;;;;;;10581495;28;20211;-85
2022/09/15 18:53:41;;;;;;;10.03;3.43;;;13.20;1.00;;;;;;10577966;28;20204;-83
2022/09/15 18:59:03;;;;;;;17.93;5.63;;;13.10;1.00;;;;;;10564568;28;20371;-84
2022/09/15 19:04:24;;;;;;;12.17;4.33;;;13.10;1.00;;;;;;10566732;28;20192;-82
2022/09/15 19:09:50;;;;;;;9.33;3.80;;;13.00;1.00;;;;;;10601280;28;20196;-83
2022/09/15 19:15:16;;;;;;;11.30;5.20;;;12.90;59.60;;;;;;10582041;28;20207;-85
2022/09/15 19:20:37;;;;;;;9.70;3.37;;;12.90;99.90;;;;;;10565593;28;20228;-85
2022/09/15 19:26:05;;;;;;;7.20;3.47;;;12.80;99.90;;;;;;10580592;28;20505;-84
2022/09/15 19:31:26;;;;;;;6.83;3.13;;;12.70;1.00;;;;;;10587858;28;20273;-85
2022/09/15 19:36:47;;;;;;;11.73;3.63;;;12.70;1.00;;;;;;10580035;28;20194;-84
2022/09/15 19:42:10;;;;;;;9.27;3.70;;;12.60;1.00;;;;;;10542458;28;20239;-84
2022/09/15 19:47:31;;;;;;;10.57;4.10;;;12.50;1.00;;;;;;10562159;28;20236;-85
2022/09/15 19:52:53;;;;;;;12.13;4.37;;;12.50;27.80;;;;;;10534467;28;20216;-83
2022/09/15 19:58:18;;;;;;;17.50;5.37;;;12.40;49.10;;;;;;10534684;28;20199;-84
2022/09/15 20:03:39;;;;;;;11.00;4.27;;;12.40;51.20;;;;;;10575811;28;20294;-84
2022/09/15 20:09:18;;;;;;;16.63;5.47;;;12.30;19.00;;;;;;10577674;28;20198;-84
2022/09/15 20:14:40;;;;;;;19.60;6.40;;;12.30;1.00;;;;;;10561156;28;20200;-84
2022/09/15 20:20:01;;;;;;;18.27;4.87;;;12.20;1.00;;;;;;10556482;28;20223;-84
2022/09/15 20:25:22;;;;;;;10.63;3.90;;;12.20;1.00;;;;;;10540686;28;20198;-84
2022/09/15 20:30:44;;;;;;;7.50;2.57;;;12.20;1.00;;;;;;10560088;28;20230;-84
2022/09/15 20:36:16;;;;;;;9.07;2.37;;;12.10;1.00;;;;;;10574127;28;20191;-83
2022/09/15 20:41:38;;;;;;;8.43;3.20;;;12.10;1.00;;;;;;10560281;28;20225;-84
2022/09/15 20:46:59;;;;;;;8.47;2.80;;;12.10;1.00;;;;;;10574042;28;20196;-85
2022/09/15 20:52:20;;;;;;;9.13;2.80;;;12.20;1.00;;;;;;10573980;28;20191;-85
2022/09/15 20:57:42;;;;;;;5.13;2.10;;;12.20;1.00;;;;;;10559683;28;20200;-85
2022/09/15 21:03:03;;;;;;;4.10;1.87;;;12.20;1.00;;;;;;10573402;28;20548;-85
2022/09/15 21:08:44;;;;;;;2.47;1.37;;;12.20;1.00;;;;;;10576062;28;20357;-85
2022/09/15 21:14:24;;;;;;;3.23;1.37;;;12.20;1.00;;;;;;10605182;28;20200;-84
2022/09/15 21:19:45;;;;;;;4.87;1.53;;;12.30;1.00;;;;;;10560690;28;20573;-83
2022/09/15 21:25:07;;;;;;;4.07;1.50;;;12.50;3.10;;;;;;10534297;28;20269;-84
2022/09/15 21:30:28;;;;;;;6.33;1.57;;;12.50;11.00;;;;;;10575302;28;20590;-84
2022/09/15 21:35:51;;;;;;;5.30;1.60;;;12.50;1.00;;;;;;10590333;28;20196;-84
2022/09/15 21:41:15;;;;;;;4.43;1.43;;;12.50;1.00;;;;;;10586323;28;20219;-82
2022/09/15 21:46:36;;;;;;;5.70;1.53;;;12.60;1.00;;;;;;10572413;28;20216;-84
2022/09/15 21:51:57;;;;;;;8.53;2.07;;;12.50;43.40;;;;;;10574671;28;20214;-84
2022/09/15 21:57:18;;;;;;;4.87;1.73;;;12.40;56.60;;;;;;10557556;28;20193;-84
2022/09/15 22:02:40;;;;;;;4.20;1.60;;;12.30;55.30;;;;;;10572748;28;20224;-84
2022/09/15 22:08:01;;;;;;;4.43;1.60;;;12.20;41.90;;;;;;10581379;28;20202;-84
2022/09/15 22:13:25;;;;;;;9.33;2.77;;;12.20;1.00;;;;;;10583500;28;20197;-84
2022/09/15 22:18:47;;;;;;;4.73;1.40;;;12.10;12.40;;;;;;10585480;28;20203;-84
2022/09/15 22:24:10;;;;;;;6.00;1.67;;;12.10;1.00;;;;;;10557241;28;20298;-83
2022/09/15 22:29:31;;;;;;;6.77;1.80;;;12.00;1.80;;;;;;10570935;28;20494;-84
2022/09/15 22:34:53;;;;;;;3.20;1.67;;;12.00;1.00;;;;;;10571451;28;20202;-83
2022/09/15 22:40:15;;;;;;;4.07;1.77;;;12.00;1.00;;;;;;10570941;28;20302;-84
2022/09/15 22:45:37;;;;;;;5.77;1.50;;;12.00;1.00;;;;;;10556814;28;20265;-84
2022/09/15 22:50:58;;;;;;;4.60;1.33;;;12.00;1.00;;;;;;10572942;28;20461;-84
2022/09/15 22:56:20;;;;;;;3.47;1.53;;;12.00;1.00;;;;;;10556278;28;20488;-84
2022/09/15 23:01:41;;;;;;;4.77;1.27;;;12.10;3.00;;;;;;10570941;28;20223;-84
2022/09/15 23:07:03;;;;;;;8.97;2.30;;;12.00;14.10;;;;;;10595309;28;20190;-84
2022/09/15 23:12:24;;;;;;;3.87;1.27;;;12.00;1.00;;;;;;10580467;28;20199;-84
2022/09/15 23:17:46;;;;;;;7.87;1.83;;;11.90;1.00;;;;;;10574080;28;20184;-84
2022/09/15 23:23:07;;;;;;;3.53;1.33;;;11.90;1.00;;;;;;10566194;28;20234;-83
2022/09/15 23:28:29;;;;;;;5.53;1.43;;;11.80;99.90;;;;;;10563190;28;20197;-83
2022/09/15 23:33:51;;;;;;;4.23;1.70;;;11.70;99.90;;;;;;10562880;28;20460;-84
2022/09/15 23:39:12;;;;;;;4.93;2.07;;;11.70;99.90;;;;;;10568260;28;20415;-83
2022/09/15 23:44:33;;;;;;;8.50;2.13;;;11.60;99.90;;;;;;10581051;28;20240;-84
2022/09/15 23:49:55;;;;;;;7.27;1.83;;;11.60;99.90;;;;;;10579077;28;20194;-84
2022/09/15 23:55:16;;;;;;;4.40;1.30;;;11.50;99.90;;;;;;10579115;28;20209;-83
